Tiempo atmosférico en la estación meteorológica de Calvià, Son Vic Nou, Illes Balears (35 m.)

Fecha
DESCASC
Temp. máxima en grados centígrados (hora)
DESCASC
Temp. mínima en grados centígrados (hora)
DESCASC
Temp. media en grados centígrados
DESCASC
Racha de viento máxima en m/sg (hora)
DESCASC
Velocidad máxima media en intervalos de 10 minutos(hora)
DESCASC
Precipitaciones diarias en mm
DESCASC
Precipitaciones de 00:00 a 06:00 en mm
DESCASC
Precipitaciones de 06:00 a 12:00 en mm
DESCASC
Precipitaciones de 12:00 a 18:00 en mm
DESCASC
Precipitaciones de 18:00 a 24:00 en mm
DESCASC

Gráficas

Temp. máximas Temp. mínimas Temp. medias Precipitaciones Rachas de viento máximas Velocidades máximas media en intervalos de 10 minutos

Datos horarios

Fecha y hora oficial Temperatura (ºC) Velocidad del viento (km/h) Dirección del viento Racha (km/h) Dirección de racha Precipitación (mm) Presión (hPa) Tendencia (hPa) Humedad (%)
2017-11-24 23:00:00 12.9 0 Calma 8 Este 0 -- -- 97
2017-11-24 22:00:00 14.5 2 Este 6 Nordeste 0 -- -- 96
2017-11-24 21:00:00 14.9 2 Nordeste 6 Norte 0 -- -- 94
2017-11-24 20:00:00 15.4 2 Este 4 Sudeste 0 -- -- 93
2017-11-24 19:00:00 16.3 3 Norte 6 Norte 0 -- -- 92
2017-11-24 18:00:00 17.6 3 Nordeste 6 Sudoeste 0 -- -- 89
2017-11-24 17:00:00 18.8 6 Sudoeste 14 Sudoeste 0 -- -- 87
2017-11-24 16:00:00 19.7 8 Sudoeste 17 Sudoeste 0 -- -- 84
2017-11-24 15:00:00 20.4 13 Sudoeste 19 Sudoeste 0 -- -- 82
2017-11-24 14:00:00 21.1 11 Sudoeste 19 Sur 0 -- -- 77
2017-11-24 13:00:00 22.4 10 Sudoeste 19 Sudoeste 0 -- -- 66
2017-11-24 12:00:00 21.1 9 Sudoeste 15 Sudoeste 0 -- -- 91
2017-11-24 11:00:00 19.3 5 Sudoeste 8 Sur 0 -- -- 96
2017-11-24 10:00:00 16.2 0 Calma 8 Este 0 -- -- 98
2017-11-24 09:00:00 13.3 3 Nordeste 7 Este 0 -- -- 100
2017-11-24 08:00:00 10.8 5 Este 9 Este 0 -- -- 98
2017-11-24 07:00:00 11.2 4 Este 7 Este 0 -- -- 97
2017-11-24 06:00:00 11.1 0 Calma 6 Este 0 -- -- 98
2017-11-24 05:00:00 10.7 2 Nordeste 6 Este 0 -- -- 98
2017-11-24 04:00:00 10.6 3 Este 8 Este 0 -- -- 97
2017-11-24 03:00:00 10.5 3 Nordeste 9 Este 0 -- -- 95
2017-11-24 02:00:00 10.6 3 Este 7 Este 0 -- -- 95
2017-11-24 01:00:00 10.6 0 Calma 5 Este 0 -- -- 93
2017-11-24 00:00:00 9.9 2 Nordeste 8 Este 0 -- -- 91
2017-11-23 23:00:00 10.3 2 Este 7 Este 0 -- -- 90
2017-11-23 22:00:00 9.8 2 Nordeste 9 Este 0 -- -- 89
2017-11-23 21:00:00 10.7 3 Este 7 Este 0 -- -- 90
2017-11-23 20:00:00 11.4 4 Este 6 Este 0 -- -- 90
2017-11-23 19:00:00 12.1 2 Este 5 Norte 0 -- -- 88
2017-11-23 18:00:00 13.4 0 Calma 9 Noroeste 0 -- -- 84
2017-11-23 17:00:00 18.5 3 Sudoeste 11 Oeste 0 -- -- 72
2017-11-23 16:00:00 20.2 5 Oeste 21 Oeste 0 -- -- 71
2017-11-23 15:00:00 20 8 Noroeste 18 Sudoeste 0 -- -- 70
2017-11-23 14:00:00 20 9 Sudoeste 16 Sudoeste 0 -- -- 72
2017-11-23 13:00:00 20 10 Sur 16 Sudoeste 0 -- -- 74
2017-11-23 12:00:00 18.8 8 Sudoeste 15 Sur 0 -- -- 81
2017-11-23 11:00:00 18.6 5 Sudoeste 12 Sudoeste 0 -- -- 92
2017-11-23 10:00:00 15.4 3 Este 8 Este 0 -- -- 97
2017-11-23 09:00:00 11.6 2 Este 8 Este 0 -- -- 98
2017-11-23 08:00:00 9.5 4 Este 7 Norte 0 -- -- 97
2017-11-23 07:00:00 9.4 3 Este 6 Este 0 -- -- 98
2017-11-23 06:00:00 9.8 4 Nordeste 11 Este 0.2 -- -- 97
2017-11-23 05:00:00 10.1 0 Calma 8 Este 0 -- -- 97
2017-11-23 04:00:00 10.3 4 Este 8 Este 0 -- -- 96
2017-11-23 03:00:00 11.3 4 Este 8 Norte 0 -- -- 94
2017-11-23 02:00:00 11 4 Este 9 Este 0 -- -- 95
2017-11-23 01:00:00 11.5 4 Nordeste 9 Norte 0 -- -- 94
2017-11-23 00:00:00 11.8 0 Calma 9 Norte 0 -- -- 94
2017-11-22 23:00:00 11.3 0 Calma 8 Este 0 -- -- 94
2017-11-22 22:00:00 10.9 3 Nordeste 8 Este 0 -- -- 93
2017-11-22 21:00:00 11.4 3 Nordeste 6 Norte 0 -- -- 93
2017-11-22 20:00:00 11.2 3 Este 8 Nordeste 0 -- -- 90
2017-11-22 19:00:00 12 3 Este 5 Este 0 -- -- 87
2017-11-22 18:00:00 13.7 3 Noroeste 5 Norte 0 -- -- 82
2017-11-22 17:00:00 17.5 3 Sudeste 15 Sudeste 0 -- -- 70
2017-11-22 16:00:00 19.2 7 Sur 16 Sur 0 -- -- 68
2017-11-22 15:00:00 19 12 Sudoeste 20 Sudoeste 0 -- -- 68
2017-11-22 14:00:00 19.7 12 Sudoeste 19 Sudoeste 0 -- -- 67
2017-11-22 13:00:00 20.3 10 Sudoeste 17 Sur 0 -- -- 67
2017-11-22 12:00:00 19.3 7 Sur 21 Sudeste 0 -- -- 75
2017-11-22 11:00:00 18.5 6 Sur 17 Sur 0 -- -- 92
2017-11-22 10:00:00 15.8 3 Este 9 Este 0 -- -- 97
2017-11-22 09:00:00 12 5 Este 7 Este 0 -- -- 99
2017-11-22 08:00:00 9.8 4 Este 6 Este 0 -- -- 98
2017-11-22 07:00:00 9.9 5 Este 7 Este 0 -- -- 98
2017-11-22 06:00:00 9.5 3 Este 8 Este 0 -- -- 99
2017-11-22 05:00:00 9.4 3 Este 8 Este 0 -- -- 98
2017-11-22 04:00:00 10 4 Este 6 Este 0 -- -- 97
2017-11-22 03:00:00 10 3 Nordeste 7 Este 0 -- -- 97
2017-11-22 02:00:00 10.4 3 Este 8 Este 0 -- -- 97
2017-11-22 01:00:00 11.1 3 Nordeste 5 Nordeste 0 -- -- 95
2017-11-22 00:00:00 12.3 0 Calma 5 Este 0 -- -- 95
2017-11-21 23:00:00 11.8 3 Este 5 Este 0 -- -- 94
2017-11-21 22:00:00 12 3 Este 6 Este 0 -- -- 93
2017-11-21 21:00:00 13 5 Este 8 Este 0 -- -- 92
2017-11-21 20:00:00 12.9 3 Este 8 Este 0 -- -- 92
2017-11-21 19:00:00 13.2 2 Este 5 Nordeste 0 -- -- 89
2017-11-21 18:00:00 14.4 0 Calma 7 Sudoeste 0 -- -- 85
2017-11-21 17:00:00 17.6 5 Sudoeste 14 Sudoeste 0 -- -- 76
2017-11-21 16:00:00 19.2 8 Sudoeste 18 Sudoeste 0 -- -- 73
2017-11-21 15:00:00 19.5 13 Sudoeste 20 Sudoeste 0 -- -- 73
2017-11-21 14:00:00 20.1 11 Sudoeste 19 Sur 0 -- -- 71
2017-11-21 13:00:00 20 10 Sudoeste 18 Sur 0 -- -- 73
2017-11-21 12:00:00 19.5 9 Sudoeste 17 Sudoeste 0 -- -- 83
2017-11-21 11:00:00 18.8 6 Sudoeste 14 Sudoeste 0 -- -- 96
2017-11-21 10:00:00 13.9 2 Norte 9 Este 0 -- -- 98
2017-11-21 09:00:00 10.4 0 Calma 9 Este 0 -- -- 99
2017-11-21 08:00:00 9.3 4 Este 8 Este 0 -- -- 97
2017-11-21 07:00:00 9.7 6 Este 9 Este 0 -- -- 99
2017-11-21 06:00:00 9.1 5 Este 9 Este 0 -- -- 98
2017-11-21 05:00:00 9.1 3 Nordeste 9 Este 0.2 -- -- 98
2017-11-21 04:00:00 9.7 6 Este 9 Este 0 -- -- 98
2017-11-21 03:00:00 9.6 3 Nordeste 7 Este 0 -- -- 97
2017-11-21 02:00:00 10.2 3 Este 7 Este 0 -- -- 96
2017-11-21 01:00:00 9.9 2 Nordeste 6 Este 0 -- -- 97
2017-11-21 00:00:00 9.9 2 Nordeste 8 Nordeste 0 -- -- 96
2017-11-20 23:00:00 10.6 3 Nordeste 7 Este 0 -- -- 95
2017-11-20 22:00:00 10.5 3 Este 7 Este 0 -- -- 94
2017-11-20 21:00:00 10.9 5 Este 8 Este 0 -- -- 92
2017-11-20 20:00:00 11.3 0 Calma 5 Nordeste 0 -- -- 91
2017-11-20 19:00:00 11.9 3 Nordeste 5 Este 0 -- -- 87
2017-11-20 18:00:00 14.1 0 Calma 6 Norte 0 -- -- 81
2017-11-20 17:00:00 18.1 5 Oeste 14 Sudoeste 0 -- -- 71
2017-11-20 16:00:00 19.5 9 Sur 17 Sur 0 -- -- 69
2017-11-20 15:00:00 19.7 12 Sur 20 Sudoeste 0 -- -- 68
2017-11-20 14:00:00 19.3 11 Sur 22 Oeste 0 -- -- 69
2017-11-20 13:00:00 18.8 13 Oeste 22 Sudoeste 0 -- -- 68
2017-11-20 12:00:00 18.3 14 Sudoeste 23 Sudoeste 0 -- -- 70
2017-11-20 11:00:00 18.3 5 Sudoeste 10 Sudoeste 0 -- -- 76
2017-11-20 10:00:00 14.8 0 Calma 5 Este 0 -- -- 90
2017-11-20 09:00:00 10 0 Calma 10 Este 0 -- -- 93
2017-11-20 08:00:00 7.1 3 Nordeste 9 Este 0 -- -- 93
2017-11-20 07:00:00 7.1 6 Este 12 Este 0 -- -- 91
2017-11-20 06:00:00 6.4 5 Este 9 Este 0 -- -- 90
2017-11-20 05:00:00 6.6 2 Nordeste 8 Este 0 -- -- 90
2017-11-20 04:00:00 6.9 3 Este 10 Este 0 -- -- 88
2017-11-20 03:00:00 7.2 5 Este 9 Este 0 -- -- 89
2017-11-20 02:00:00 6.9 5 Este 9 Este 0 -- -- 89
2017-11-20 01:00:00 6.5 3 Nordeste 8 Este 0 -- -- 89
2017-11-20 00:00:00 7 4 Nordeste 8 Este 0 -- -- 89
2017-11-19 23:00:00 7.3 2 Este 6 Este 0 -- -- 88
2017-11-19 22:00:00 7.5 2 Nordeste 6 Este 0 -- -- 87
2017-11-19 21:00:00 8.3 0 Calma 7 Este 0 -- -- 87
2017-11-19 20:00:00 9.2 3 Nordeste 8 Este 0 -- -- 86
2017-11-19 19:00:00 10.2 3 Norte 5 Norte 0 -- -- 84
2017-11-19 18:00:00 12.4 0 Calma 8 Noroeste 0 -- -- 78
2017-11-19 17:00:00 17.2 4 Norte 11 Noroeste 0 -- -- 64
2017-11-19 16:00:00 19.5 8 Noroeste 21 Noroeste 0 -- -- 55
2017-11-19 15:00:00 18.9 13 Noroeste 21 Noroeste 0 -- -- 61
2017-11-19 14:00:00 19.4 12 Norte 23 Norte 0 -- -- 62
2017-11-19 13:00:00 19.5 9 Noroeste 21 Noroeste 0 -- -- 66
2017-11-19 12:00:00 18.8 9 Noroeste 19 Noroeste 0 -- -- 75
2017-11-19 11:00:00 17.8 9 Oeste 30 Oeste 0 -- -- 94
2017-11-19 10:00:00 14.7 0 Calma 9 Este 0 -- -- 98
2017-11-19 09:00:00 10.7 3 Este 9 Este 0 -- -- 99
2017-11-19 08:00:00 8 3 Este 8 Este 0 -- -- 98
2017-11-19 07:00:00 8.1 3 Este 9 Este 0 -- -- 98
2017-11-19 06:00:00 7.7 3 Este 8 Este 0 -- -- 98
2017-11-19 05:00:00 8.3 2 Nordeste 9 Este 0 -- -- 98
2017-11-19 04:00:00 8.1 4 Este 8 Este 0 -- -- 98
2017-11-19 03:00:00 8.5 0 Calma 6 Este 0 -- -- 97
2017-11-19 02:00:00 8.5 2 Nordeste 9 Este 0 -- -- 97
2017-11-19 01:00:00 9.1 0 Calma 8 Este 0 -- -- 96
2017-11-19 00:00:00 9 0 Calma 4 Nordeste 0 -- -- 95
2017-11-18 23:00:00 9.1 3 Nordeste 7 Este 0 -- -- 94
2017-11-18 22:00:00 9.5 2 Nordeste 6 Este 0 -- -- 93
2017-11-18 21:00:00 10.1 2 Este 7 Este 0 -- -- 91
2017-11-18 20:00:00 11.5 2 Este 6 Este 0 -- -- 91
2017-11-18 19:00:00 11.9 5 Norte 8 Este 0 -- -- 89
2017-11-18 18:00:00 13.5 3 Nordeste 10 Sudoeste 0 -- -- 81
2017-11-18 17:00:00 17.3 8 Sudoeste 14 Sudoeste 0 -- -- 72
2017-11-18 16:00:00 18.9 9 Sudoeste 18 Sur 0 -- -- 68
2017-11-18 15:00:00 19 11 Sudoeste 19 Sudoeste 0 -- -- 67
2017-11-18 14:00:00 19.3 12 Sudoeste 18 Sudoeste 0 -- -- 64
2017-11-18 13:00:00 19.4 9 Sudoeste 16 Sudoeste 0 -- -- 66
2017-11-18 12:00:00 19.1 6 Sudoeste 10 Sudoeste 0 -- -- 68
2017-11-18 11:00:00 18 4 Sur 8 Sur 0 -- -- 69
2017-11-18 10:00:00 15.4 0 Calma 7 Este 0 -- -- 84
2017-11-18 09:00:00 9.9 5 Este 9 Este 0 -- -- 92
2017-11-18 08:00:00 6.3 4 Este 9 Este 0 -- -- 92
2017-11-18 07:00:00 7.4 8 Este 11 Este 0 -- -- 91
2017-11-18 06:00:00 7.3 10 Este 12 Este 0 -- -- 91
2017-11-18 05:00:00 6.6 3 Nordeste 9 Este 0 -- -- 92
2017-11-18 04:00:00 6.9 4 Norte 10 Este 0 -- -- 91
2017-11-18 03:00:00 6.4 3 Nordeste 8 Este 0 -- -- 91
2017-11-18 02:00:00 7.6 3 Este 8 Este 0 -- -- 90
2017-11-18 01:00:00 7.9 8 Este 10 Este 0 -- -- 90
2017-11-18 00:00:00 7.5 2 Este 7 Este 0 -- -- 89
2017-11-17 23:00:00 8 3 Nordeste 7 Este 0 -- -- 88
2017-11-17 22:00:00 8.4 0 Calma 8 Este 0 -- -- 88
2017-11-17 21:00:00 8.8 2 Nordeste 8 Este 0 -- -- 86
2017-11-17 20:00:00 10.5 4 Este 8 Este 0 -- -- 85
2017-11-17 19:00:00 11.6 0 Calma 10 Norte 0 -- -- 80
2017-11-17 18:00:00 13.7 4 Norte 15 Norte 0 -- -- 72
2017-11-17 17:00:00 16.9 8 Norte 18 Noroeste 0 -- -- 63
2017-11-17 16:00:00 18.7 10 Noroeste 21 Norte 0 -- -- 58
2017-11-17 15:00:00 19.3 13 Norte 21 Norte 0 -- -- 58
2017-11-17 14:00:00 20.5 6 Noroeste 22 Oeste 0 -- -- 56
2017-11-17 13:00:00 19.5 12 Oeste 22 Oeste 0 -- -- 60
2017-11-17 12:00:00 18.5 11 Oeste 21 Oeste 0 -- -- 67
2017-11-17 11:00:00 17.5 5 Sur 9 Sur 0 -- -- 83
2017-11-17 10:00:00 14.1 2 Sudeste 5 Sudeste 0 -- -- 94
2017-11-17 09:00:00 9 0 Calma 8 Este 0 -- -- 96
2017-11-17 08:00:00 6.3 3 Este 9 Este 0 -- -- 95
2017-11-17 07:00:00 6.8 5 Este 9 Este 0 -- -- 95
2017-11-17 06:00:00 6.2 4 Este 11 Este 0 -- -- 93
2017-11-17 05:00:00 6 4 Nordeste 10 Este 0 -- -- 93
2017-11-17 04:00:00 6.3 6 Este 11 Este 0 -- -- 90
2017-11-17 03:00:00 5.7 2 Norte 9 Este 0 -- -- 90
2017-11-17 02:00:00 5.8 3 Nordeste 10 Este 0 -- -- 88
2017-11-17 01:00:00 6.3 4 Este 9 Este 0 -- -- 89
2017-11-17 00:00:00 6.4 0 Calma 8 Este 0 -- -- 88
2017-11-16 23:00:00 7.4 3 Este 5 Este 0 -- -- 86
2017-11-16 22:00:00 7.2 0 Calma 6 Este 0 -- -- 82
2017-11-16 21:00:00 7.7 0 Calma 6 Este 0 -- -- 78
2017-11-16 20:00:00 8.5 4 Nordeste 10 Este 0 -- -- 74
2017-11-16 19:00:00 9.2 3 Este 6 Este 0 -- -- 72
2017-11-16 18:00:00 11.2 2 Norte 6 Noroeste 0 -- -- 67
2017-11-16 17:00:00 16.3 3 Noroeste 12 Noroeste 0 -- -- 52
2017-11-16 16:00:00 19.8 8 Oeste 17 Noroeste 0 -- -- 43
2017-11-16 15:00:00 18.9 12 Sudoeste 18 Sudoeste 0 -- -- 55
2017-11-16 14:00:00 18.5 11 Sudoeste 17 Sur 0 -- -- 59
2017-11-16 13:00:00 18.6 9 Sudoeste 17 Sur 0 -- -- 55
2017-11-16 12:00:00 18.7 3 Este 13 Sudeste 0 -- -- 54
2017-11-16 11:00:00 17.7 7 Sudeste 13 Sudeste 0 -- -- 62
2017-11-16 10:00:00 14.5 0 Calma 4 Este 0 -- -- 89
2017-11-16 09:00:00 9.9 2 Este 8 Este 0 -- -- 94
2017-11-16 08:00:00 6.7 6 Este 10 Este 0 -- -- 94
2017-11-16 07:00:00 6.9 5 Este 11 Este 0 -- -- 92
2017-11-16 06:00:00 7.6 8 Este 12 Este 0 -- -- 92
2017-11-16 05:00:00 7.2 4 Este 9 Este 0 -- -- 90
2017-11-16 04:00:00 7 5 Este 9 Este 0 -- -- 91
2017-11-16 03:00:00 6.6 3 Este 8 Este 0 -- -- 90
2017-11-16 02:00:00 6.2 0 Calma 6 Este 0 -- -- 88
2017-11-16 01:00:00 6.1 5 Este 9 Este 0 -- -- 85
2017-11-16 00:00:00 5.5 4 Este 9 Este 0 -- -- 83
2017-11-15 23:00:00 6.2 4 Este 10 Este 0 -- -- 79
2017-11-15 22:00:00 6.7 3 Este 8 Este 0 -- -- 80
2017-11-15 21:00:00 7.3 6 Este 9 Este 0 -- -- 81
2017-11-15 20:00:00 8.2 7 Nordeste 11 Este 0 -- -- 79
2017-11-15 19:00:00 8.9 4 Nordeste 8 Este 0 -- -- 80
2017-11-15 18:00:00 10.5 3 Noroeste 9 Norte 0 -- -- 72
2017-11-15 17:00:00 15.2 5 Noroeste 21 Noroeste 0 -- -- 58
2017-11-15 16:00:00 16.7 9 Noroeste 22 Oeste 0 -- -- 56
2017-11-15 15:00:00 17.4 10 Noroeste 27 Norte 0 -- -- 57
2017-11-15 14:00:00 17.3 9 Norte 31 Noroeste 0 -- -- 60
2017-11-15 13:00:00 16.9 10 Norte 30 Norte 0 -- -- 63
2017-11-15 12:00:00 16 12 Norte 30 Norte 0 -- -- 65
2017-11-15 11:00:00 15.8 13 Norte 34 Noroeste 0 -- -- 65
2017-11-15 10:00:00 15.3 10 Norte 21 Norte 0 -- -- 67
2017-11-15 09:00:00 13.5 7 Noroeste 22 Norte 0 -- -- 78
2017-11-15 08:00:00 7.5 5 Norte 11 Noroeste 0 -- -- 93
2017-11-15 07:00:00 5.2 3 Nordeste 10 Este 0 -- -- 92
2017-11-15 06:00:00 4.6 4 Nordeste 10 Este 0 -- -- 91
2017-11-15 05:00:00 5.3 3 Nordeste 12 Este 0 -- -- 90
2017-11-15 04:00:00 5.3 3 Nordeste 9 Este 0 -- -- 90
2017-11-15 03:00:00 5 5 Este 9 Este 0 -- -- 89
2017-11-15 02:00:00 5.5 3 Norte 9 Este 0 -- -- 88
2017-11-15 01:00:00 5.4 0 Calma 6 Norte 0 -- -- 86
2017-11-15 00:00:00 5.7 0 Calma 9 Noroeste 0 -- -- 82
2017-11-14 23:00:00 7.4 3 Norte 18 Nordeste 0 -- -- 74
2017-11-14 22:00:00 8.1 5 Nordeste 12 Norte 0 -- -- 74
2017-11-14 21:00:00 9 3 Norte 15 Nordeste 0 -- -- 68
2017-11-14 20:00:00 10.4 2 Sudeste 18 Nordeste 0 -- -- 65
2017-11-14 19:00:00 8.8 2 Este 18 Norte 0 -- -- 66
2017-11-14 18:00:00 11.3 6 Nordeste 20 Nordeste 0 -- -- 58
2017-11-14 17:00:00 12.6 9 Nordeste 37 Nordeste 0 -- -- 54
2017-11-14 16:00:00 15 10 Nordeste 23 Nordeste 0 -- -- 49
2017-11-14 15:00:00 13.3 16 Nordeste 29 Norte 0 -- -- 53
2017-11-14 14:00:00 12.9 14 Nordeste 44 Nordeste 0 -- -- 52
2017-11-14 13:00:00 15.3 12 Nordeste 40 Nordeste 0 -- -- 49
2017-11-14 12:00:00 14.3 18 Nordeste 42 Nordeste 0 -- -- 50
2017-11-14 11:00:00 14 22 Nordeste 46 Nordeste 0 -- -- 53
2017-11-14 10:00:00 13.7 9 Nordeste 18 Nordeste 0 -- -- 63
2017-11-14 09:00:00 8.8 0 Calma 8 Este 0 -- -- 77
2017-11-14 08:00:00 6.3 4 Este 6 Este 0 -- -- 74
2017-11-14 07:00:00 7.3 0 Calma 6 Nordeste 0.2 -- -- 68
2017-11-14 06:00:00 11.8 5 Nordeste 32 Nordeste 0 -- -- 58
2017-11-14 05:00:00 10.9 5 Norte 14 Norte 0 -- -- 69
2017-11-14 04:00:00 10.6 3 Noroeste 16 Nordeste 0 -- -- 64
2017-11-14 03:00:00 12.4 10 Norte 20 Norte 0 -- -- 59
2017-11-14 02:00:00 12.5 8 Norte 24 Norte 0 -- -- 60
2017-11-14 01:00:00 12.7 7 Norte 28 Noroeste 0 -- -- 55
2017-11-14 00:00:00 13.3 6 Norte 29 Noroeste 0 -- -- 50
2017-11-13 23:00:00 13.7 12 Norte 38 Noroeste 0 -- -- 48
2017-11-13 22:00:00 14.3 17 Norte 40 Noroeste 0 -- -- 47
2017-11-13 21:00:00 14.5 10 Norte 33 Norte 0 -- -- 38
2017-11-13 20:00:00 14.6 9 Norte 31 Noroeste 0 -- -- 38
2017-11-13 19:00:00 14.2 8 Norte 28 Norte 0 -- -- 44
2017-11-13 18:00:00 11.8 4 Sur 15 Norte 0 -- -- 56
2017-11-13 17:00:00 14.6 9 Nordeste 28 Nordeste 0 -- -- 52
2017-11-13 16:00:00 15.6 6 Oeste 13 Oeste 0 -- -- 71
2017-11-13 15:00:00 13.2 11 Oeste 20 Oeste 0 -- -- 78
2017-11-13 14:00:00 10.8 3 Sur 22 Nordeste 0 -- -- 85
2017-11-13 13:00:00 11.3 10 Nordeste 23 Nordeste 0.4 -- -- 83
2017-11-13 12:00:00 11 11 Nordeste 21 Norte 0.6 -- -- 88
2017-11-13 11:00:00 11.3 4 Nordeste 15 Nordeste 2 -- -- 90
2017-11-13 10:00:00 11.4 0 Calma 5 Sur 1 -- -- 91
2017-11-13 09:00:00 11.3 2 Este 8 Nordeste 1.2 -- -- 89
2017-11-13 08:00:00 11.5 0 Calma 9 Nordeste 0 -- -- 86
2017-11-13 07:00:00 12.4 0 Calma 10 Nordeste 0.2 -- -- 83
2017-11-13 06:00:00 15.3 13 Nordeste 45 Noroeste 0.2 -- -- 68
2017-11-13 05:00:00 17.2 15 Norte 51 Norte 0 -- -- 61
2017-11-13 04:00:00 17.5 22 Noroeste 48 Noroeste 0 -- -- 60
2017-11-13 03:00:00 16.6 9 Noroeste 34 Noroeste 0 -- -- 66
2017-11-13 02:00:00 17.3 13 Noroeste 31 Norte 0 -- -- 65
2017-11-13 01:00:00 17.4 13 Noroeste 47 Noroeste 0 -- -- 64
2017-11-13 00:00:00 17.3 9 Noroeste 39 Oeste 0 -- -- 67
2017-11-12 23:00:00 15.7 6 Noroeste 20 Oeste 0 -- -- 82
2017-11-12 22:00:00 13.6 11 Oeste 22 Sudoeste 0 -- -- 94
2017-11-12 21:00:00 10.7 2 Norte 8 Este 0 -- -- 89
2017-11-12 20:00:00 11 3 Este 9 Este 0 -- -- 87
2017-11-12 19:00:00 12.2 2 Este 7 Noroeste 0 -- -- 82
2017-11-12 18:00:00 14.4 3 Noroeste 15 Noroeste 0 -- -- 75
2017-11-12 17:00:00 17.9 7 Oeste 16 Oeste 0 -- -- 63
2017-11-12 16:00:00 19.2 8 Noroeste 22 Noroeste 0 -- -- 61
2017-11-12 15:00:00 19.5 12 Norte 24 Noroeste 0 -- -- 63
2017-11-12 14:00:00 19.5 13 Noroeste 27 Noroeste 0 -- -- 63
2017-11-12 13:00:00 19.3 14 Noroeste 25 Noroeste 0 -- -- 63
2017-11-12 12:00:00 19.3 11 Norte 26 Norte 0 -- -- 64
2017-11-12 11:00:00 18.4 15 Norte 31 Noroeste 0 -- -- 66
2017-11-12 10:00:00 17.7 13 Norte 27 Norte 0 -- -- 70
2017-11-12 09:00:00 17 13 Norte 26 Norte 0 -- -- 73
2017-11-12 08:00:00 15.5 12 Norte 23 Norte 0 -- -- 79
2017-11-12 07:00:00 13.9 7 Norte 16 Noroeste 0 -- -- 89
2017-11-12 06:00:00 12 6 Norte 13 Norte 0 -- -- 96
2017-11-12 05:00:00 10.5 5 Norte 9 Noroeste 0 -- -- 92
2017-11-12 04:00:00 11.1 3 Norte 9 Norte 0 -- -- 90
2017-11-12 03:00:00 11.5 0 Calma 7 Nordeste 0 -- -- 87
2017-11-12 02:00:00 13.8 3 Nordeste 13 Noroeste 0 -- -- 82
2017-11-12 01:00:00 15.4 3 Noroeste 25 Noroeste 0 -- -- 77
2017-11-12 00:00:00 16.8 13 Noroeste 27 Noroeste 0 -- -- 76
2017-11-11 23:00:00 15.9 9 Noroeste 24 Noroeste 0 -- -- 88
2017-11-11 22:00:00 11.1 2 Norte 5 Norte 0 -- -- 91
2017-11-11 21:00:00 11.3 0 Calma 6 Noroeste 0 -- -- 87
2017-11-11 20:00:00 12.5 3 Este 12 Sudeste 0 -- -- 82
2017-11-11 19:00:00 14.9 5 Este 13 Sudeste 0 -- -- 76
2017-11-11 18:00:00 15.6 3 Este 12 Norte 0 -- -- 74
2017-11-11 17:00:00 17.2 5 Norte 23 Norte 0 -- -- 70
2017-11-11 16:00:00 18 9 Noroeste 29 Noroeste 0 -- -- 71
2017-11-11 15:00:00 17.5 17 Norte 28 Norte 0 -- -- 72
2017-11-11 14:00:00 17.5 14 Noroeste 27 Norte 0 -- -- 72
2017-11-11 13:00:00 17.9 14 Norte 29 Norte 0 -- -- 69
2017-11-11 12:00:00 18.2 14 Norte 30 Norte 0 -- -- 69
2017-11-11 11:00:00 18.5 9 Noroeste 21 Norte 0 -- -- 69
2017-11-11 10:00:00 18 4 Norte 17 Oeste 0 -- -- 71
2017-11-11 09:00:00 16.6 8 Noroeste 17 Noroeste 0 -- -- 80
2017-11-11 08:00:00 12.7 4 Este 9 Este 0 -- -- 87
2017-11-11 07:00:00 12 4 Nordeste 10 Este 0 -- -- 85
2017-11-11 06:00:00 12.8 3 Noroeste 15 Oeste 0 -- -- 79
2017-11-11 05:00:00 14.7 9 Noroeste 14 Noroeste 0 -- -- 84
2017-11-11 04:00:00 10.8 4 Nordeste 9 Noroeste 0 -- -- 86
2017-11-11 03:00:00 11.3 5 Noroeste 11 Norte 0 -- -- 88
2017-11-11 02:00:00 10.4 8 Noroeste 13 Noroeste 0 -- -- 92
2017-11-11 01:00:00 8 3 Nordeste 10 Este 0 -- -- 91
2017-11-11 00:00:00 7.8 0 Calma 6 Nordeste 0 -- -- 90
2017-11-10 23:00:00 8.3 0 Calma 10 Norte 0 -- -- 87
2017-11-10 22:00:00 10.4 9 Norte 11 Norte 0 -- -- 88
2017-11-10 21:00:00 9.6 0 Calma 6 Norte 0 -- -- 88
2017-11-10 20:00:00 10.3 2 Norte 6 Noroeste 0 -- -- 86
2017-11-10 19:00:00 10.3 4 Norte 7 Norte 0 -- -- 81
2017-11-10 18:00:00 13.5 3 Nordeste 12 Norte 0 -- -- 68
2017-11-10 17:00:00 15.8 5 Nordeste 20 Nordeste 0 -- -- 62
2017-11-10 16:00:00 16.6 11 Nordeste 26 Norte 0 -- -- 60
2017-11-10 15:00:00 16.7 9 Nordeste 33 Nordeste 0 -- -- 64
2017-11-10 14:00:00 15.9 19 Nordeste 35 Nordeste 0 -- -- 69
2017-11-10 13:00:00 15 13 Nordeste 32 Nordeste 0 -- -- 89
2017-11-10 12:00:00 11.8 2 Sudeste 15 Norte 0 -- -- 94
2017-11-10 11:00:00 9.6 4 Nordeste 27 Norte 3 -- -- 96
2017-11-10 10:00:00 9.8 8 Norte 24 Norte 3.6 -- -- 97
2017-11-10 09:00:00 9.4 7 Nordeste 25 Norte 1.6 -- -- 96
2017-11-10 08:00:00 9.1 14 Norte 38 Norte 1.6 -- -- 97
2017-11-10 07:00:00 7.5 3 Nordeste 8 Este 0 -- -- 97
2017-11-10 06:00:00 7.3 2 Nordeste 7 Este 0.2 -- -- 96
2017-11-10 05:00:00 7 2 Norte 9 Este 0 -- -- 95
2017-11-10 04:00:00 7.2 4 Nordeste 9 Este 0.2 -- -- 95
2017-11-10 03:00:00 7.4 0 Calma 11 Norte 0 -- -- 95
2017-11-10 02:00:00 7.8 3 Este 10 Norte 0 -- -- 94
2017-11-10 01:00:00 8.8 3 Nordeste 10 Norte 1.6 -- -- 92
2017-11-10 00:00:00 9 3 Nordeste 23 Este 0.6 -- -- 91
2017-11-09 23:00:00 9.3 7 Norte 37 Noroeste 2.2 -- -- 89
2017-11-09 22:00:00 7.9 6 Este 8 Este 0 -- -- 90
2017-11-09 21:00:00 7.6 4 Este 9 Este 0.2 -- -- 88
2017-11-09 20:00:00 8.5 3 Nordeste 7 Este 0 -- -- 84
2017-11-09 19:00:00 9.1 0 Calma 7 Norte 0 -- -- 79
2017-11-09 18:00:00 10.9 5 Norte 14 Norte 0 -- -- 70
2017-11-09 17:00:00 14.3 5 Norte 17 Norte 0 -- -- 61
2017-11-09 16:00:00 15.6 5 Nordeste 21 Noroeste 0 -- -- 60
2017-11-09 15:00:00 14.2 7 Noroeste 21 Norte 0 -- -- 64
2017-11-09 14:00:00 15 10 Norte 21 Noroeste 0 -- -- 59
2017-11-09 13:00:00 15.6 8 Norte 23 Noroeste 0 -- -- 61
2017-11-09 12:00:00 15.3 11 Nordeste 21 Nordeste 0 -- -- 63
2017-11-09 11:00:00 12.5 13 Nordeste 24 Nordeste 0 -- -- 76
2017-11-09 10:00:00 10.7 7 Nordeste 25 Norte 0 -- -- 87
2017-11-09 09:00:00 9.6 3 Nordeste 13 Noroeste 0.6 -- -- 91
2017-11-09 08:00:00 9.7 6 Norte 19 Este 0 -- -- 92
2017-11-09 07:00:00 9.9 6 Nordeste 13 Nordeste 0.2 -- -- 93
2017-11-09 06:00:00 9.9 4 Nordeste 17 Norte 1.8 -- -- 91
2017-11-09 05:00:00 10.5 8 Norte 16 Norte 0.2 -- -- 91
2017-11-09 04:00:00 10 6 Norte 15 Norte 0 -- -- 91
2017-11-09 03:00:00 9.7 4 Norte 11 Norte 0 -- -- 90
2017-11-09 02:00:00 10.2 4 Nordeste 22 Nordeste 2.6 -- -- 85
2017-11-09 01:00:00 10.9 2 Este 14 Nordeste 0 -- -- 77
2017-11-09 00:00:00 12.7 7 Nordeste 21 Norte 0 -- -- 75
2017-11-08 23:00:00 13.9 9 Norte 28 Norte 0 -- -- 74
2017-11-08 22:00:00 12.6 0 Calma 21 Norte 0.2 -- -- 73
2017-11-08 21:00:00 15.3 13 Norte 34 Noroeste 0 -- -- 62
2017-11-08 20:00:00 14.7 6 Noroeste 17 Noroeste 0 -- -- 60
2017-11-08 19:00:00 14.2 6 Norte 22 Noroeste 0 -- -- 64
2017-11-08 18:00:00 14.3 12 Noroeste 31 Noroeste 0 -- -- 62
2017-11-08 17:00:00 15.3 16 Noroeste 33 Noroeste 0 -- -- 60
2017-11-08 16:00:00 16.3 17 Noroeste 37 Noroeste 0 -- -- 55
2017-11-08 15:00:00 17.2 15 Norte 44 Norte 0 -- -- 54
2017-11-08 14:00:00 16.9 21 Norte 42 Noroeste 0 -- -- 56
2017-11-08 13:00:00 17.2 17 Norte 41 Noroeste 0 -- -- 56
2017-11-08 12:00:00 17.2 17 Norte 46 Norte 0 -- -- 57
2017-11-08 11:00:00 17.3 18 Norte 32 Norte 0 -- -- 60
2017-11-08 10:00:00 16.5 16 Norte 29 Norte 0 -- -- 67
2017-11-08 09:00:00 16.1 9 Noroeste 18 Norte 0 -- -- 75
2017-11-08 08:00:00 9 6 Norte 11 Noroeste 0 -- -- 88
2017-11-08 07:00:00 8.5 2 Norte 9 Nordeste 0 -- -- 85
2017-11-08 06:00:00 8.3 4 Este 9 Este 0 -- -- 88
2017-11-08 05:00:00 6.6 4 Este 10 Este 0 -- -- 88
2017-11-08 04:00:00 7.1 7 Este 9 Este 0 -- -- 89
2017-11-08 03:00:00 6.1 2 Nordeste 8 Este 0 -- -- 87
2017-11-08 02:00:00 6.1 3 Este 7 Este 0 -- -- 87
2017-11-08 01:00:00 6.5 3 Este 10 Este 0 -- -- 85
2017-11-08 00:00:00 7 7 Este 11 Este 0 -- -- 83
2017-11-07 23:00:00 6.6 5 Este 10 Este 0 -- -- 81
2017-11-07 22:00:00 6.6 4 Este 8 Norte 0 -- -- 79
2017-11-07 21:00:00 7.1 2 Norte 8 Este 0 -- -- 77
2017-11-07 20:00:00 7.5 2 Nordeste 14 Noroeste 0 -- -- 72
2017-11-07 19:00:00 9.7 3 Norte 14 Oeste 0 -- -- 66
2017-11-07 18:00:00 13.7 9 Noroeste 20 Noroeste 0 -- -- 51
2017-11-07 17:00:00 15.6 8 Oeste 20 Oeste 0 -- -- 46
2017-11-07 16:00:00 16.7 14 Oeste 24 Oeste 0 -- -- 49
2017-11-07 15:00:00 16.3 14 Noroeste 27 Noroeste 0 -- -- 47
2017-11-07 14:00:00 16.4 13 Norte 29 Norte 0 -- -- 48
2017-11-07 13:00:00 16 17 Norte 29 Norte 0 -- -- 55
2017-11-07 12:00:00 15.8 16 Norte 29 Oeste 0 -- -- 55
2017-11-07 11:00:00 15.5 16 Oeste 26 Oeste 0 -- -- 58
2017-11-07 10:00:00 14.9 10 Oeste 22 Sudoeste 0 -- -- 65
2017-11-07 09:00:00 10.4 0 Calma 6 Este 0 -- -- 86
2017-11-07 08:00:00 6.3 5 Este 9 Este 0 -- -- 88
2017-11-07 07:00:00 6 2 Este 8 Este 0 -- -- 87
2017-11-07 06:00:00 6.7 2 Este 8 Este 0 -- -- 86
2017-11-07 05:00:00 7.6 2 Noroeste 9 Este 0 -- -- 85
2017-11-07 04:00:00 8 0 Calma 5 Nordeste 0 -- -- 84
2017-11-07 03:00:00 8.1 2 Este 6 Noroeste 0 -- -- 83
2017-11-07 02:00:00 8.8 2 Este 5 Noroeste 0 -- -- 79
2017-11-07 01:00:00 8.9 3 Nordeste 5 Noroeste 0 -- -- 75
2017-11-07 00:00:00 9.5 2 Noroeste 13 Sudeste 0 -- -- 68
2017-11-06 23:00:00 11 0 Calma 10 Noroeste 0 -- -- 63
2017-11-06 22:00:00 10.1 5 Noroeste 9 Noroeste 0 -- -- 60
2017-11-06 21:00:00 10.4 3 Noroeste 12 Noroeste 0 -- -- 53
2017-11-06 20:00:00 14 7 Norte 17 Norte 0 -- -- 39
2017-11-06 19:00:00 14.7 8 Noroeste 29 Norte 0 -- -- 36
2017-11-06 18:00:00 14.9 14 Norte 31 Norte 0 -- -- 37
2017-11-06 17:00:00 16 15 Norte 44 Norte 0 -- -- 38
2017-11-06 16:00:00 16.1 19 Noroeste 36 Norte 0 -- -- 41
2017-11-06 15:00:00 16.3 19 Noroeste 50 Noroeste 0 -- -- 39
2017-11-06 14:00:00 16.9 21 Norte 52 Norte 0 -- -- 46
2017-11-06 13:00:00 16.5 22 Norte 44 Norte 0 -- -- 50
2017-11-06 12:00:00 16.2 23 Norte 44 Norte 0 -- -- 50
2017-11-06 11:00:00 15.7 21 Norte 53 Norte 0 -- -- 52
2017-11-06 10:00:00 15.6 24 Norte 48 Noroeste 0 -- -- 51
2017-11-06 09:00:00 15.1 18 Norte 40 Noroeste 0 -- -- 60
2017-11-06 08:00:00 12.3 10 Norte 30 Noroeste 0.4 -- -- 84
2017-11-06 07:00:00 10.9 7 Noroeste 21 Noroeste 0 -- -- 96
2017-11-06 06:00:00 10.6 2 Noroeste 5 Este 0.2 -- -- 91
2017-11-06 05:00:00 11.3 4 Norte 32 Noroeste 2.4 -- -- 84
2017-11-06 04:00:00 14.8 16 Noroeste 30 Norte 0 -- -- 67
2017-11-06 03:00:00 14.7 12 Noroeste 41 Noroeste 0 -- -- 67
2017-11-06 02:00:00 15.1 15 Noroeste 36 Norte 0 -- -- 68
2017-11-06 01:00:00 14.3 13 Noroeste 36 Noroeste 0.8 -- -- 73
2017-11-06 00:00:00 15.9 17 Norte 41 Norte 0 -- -- 61
2017-11-05 23:00:00 15.9 14 Noroeste 42 Oeste 0 -- -- 60
2017-11-05 22:00:00 16.6 16 Norte 36 Norte 0 -- -- 59
2017-11-05 21:00:00 16.7 12 Norte 28 Norte 0 -- -- 59
2017-11-05 20:00:00 16.6 11 Noroeste 30 Noroeste 0 -- -- 62
2017-11-05 19:00:00 16.5 8 Noroeste 33 Norte 0 -- -- 65
2017-11-05 18:00:00 16.9 15 Noroeste 37 Norte 0 -- -- 65
2017-11-05 17:00:00 18 15 Noroeste 34 Norte 0 -- -- 64
2017-11-05 16:00:00 18.6 21 Norte 38 Norte 0 -- -- 65
2017-11-05 15:00:00 18.4 14 Norte 31 Norte 0 -- -- 70
2017-11-05 14:00:00 19.7 18 Noroeste 33 Noroeste 0 -- -- 68
2017-11-05 13:00:00 20 16 Noroeste 31 Norte 0 -- -- 66
2017-11-05 12:00:00 18.8 13 Noroeste 28 Noroeste 0 -- -- 72
2017-11-05 11:00:00 19 19 Noroeste 33 Norte 0 -- -- 69
2017-11-05 10:00:00 18.9 15 Norte 36 Noroeste 0 -- -- 69
2017-11-05 09:00:00 19.2 17 Noroeste 28 Noroeste 0 -- -- 69
2017-11-05 08:00:00 17.6 15 Norte 30 Norte 0 -- -- 69
2017-11-05 07:00:00 17.5 11 Norte 26 Norte 0 -- -- 72
2017-11-05 06:00:00 15.9 10 Noroeste 18 Noroeste 0 -- -- 87
2017-11-05 05:00:00 15.5 8 Noroeste 13 Noroeste 0 -- -- 87
2017-11-05 04:00:00 15.9 6 Noroeste 22 Oeste 0 -- -- 82
2017-11-05 03:00:00 17.8 5 Oeste 20 Oeste 0 -- -- 74
2017-11-05 02:00:00 19 9 Oeste 34 Oeste 0 -- -- 74
2017-11-05 01:00:00 19.1 14 Oeste 34 Oeste 0 -- -- 88
2017-11-05 00:00:00 14.1 4 Nordeste 13 Este 0.2 -- -- 96
2017-11-04 23:00:00 13.6 5 Este 8 Este 0 -- -- 96
2017-11-04 22:00:00 13.8 0 Calma 7 Este 0 -- -- 94
2017-11-04 21:00:00 14.1 3 Este 8 Este 0 -- -- 93
2017-11-04 20:00:00 14.9 5 Nordeste 31 Oeste 6.2 -- -- 88
2017-11-04 19:00:00 20.3 8 Oeste 16 Oeste 0 -- -- 79
2017-11-04 18:00:00 20.5 7 Sudoeste 16 Sudoeste 0 -- -- 77
2017-11-04 17:00:00 21.1 8 Sudoeste 22 Sudoeste 0 -- -- 76
2017-11-04 16:00:00 21.6 10 Sudoeste 26 Sudoeste 0 -- -- 74
2017-11-04 15:00:00 23.1 11 Sudoeste 27 Oeste 0 -- -- 69
2017-11-04 14:00:00 23.7 14 Sudoeste 27 Oeste 0 -- -- 69
2017-11-04 13:00:00 23.2 11 Sudoeste 19 Sudoeste 0 -- -- 75
2017-11-04 12:00:00 22.9 4 Sur 19 Sudoeste 0 -- -- 74
2017-11-04 11:00:00 22.7 7 Sudoeste 14 Sur 0 -- -- 77
2017-11-04 10:00:00 20.8 4 Noroeste 11 Sur 0 -- -- 82
2017-11-04 09:00:00 18.1 2 Sudeste 8 Sudeste 0 -- -- 90
2017-11-04 08:00:00 15.4 2 Sur 7 Este 0 -- -- 93
2017-11-04 07:00:00 15.9 5 Nordeste 10 Norte 0 -- -- 93
2017-11-04 06:00:00 15.5 0 Calma 5 Noroeste 0 -- -- 91
2017-11-04 05:00:00 17.5 3 Norte 13 Nordeste 0 -- -- 89
2017-11-04 04:00:00 17.5 6 Norte 10 Noroeste 0 -- -- 91
2017-11-04 03:00:00 17.4 4 Este 17 Nordeste 0 -- -- 87
2017-11-04 02:00:00 18.1 7 Norte 14 Norte 0 -- -- 91
2017-11-04 01:00:00 16.5 3 Este 8 Norte 0 -- -- 90
2017-11-04 00:00:00 17.8 5 Norte 15 Norte 0 -- -- 87
2017-11-03 23:00:00 18.9 8 Nordeste 16 Nordeste 0 -- -- 88
2017-11-03 22:00:00 18.2 4 Este 12 Nordeste 0 -- -- 90
2017-11-03 21:00:00 17.1 4 Este 6 Nordeste 0 -- -- 91
2017-11-03 20:00:00 15.7 0 Calma 7 Este 0 -- -- 90
2017-11-03 19:00:00 16.2 2 Nordeste 5 Este 0 -- -- 87
2017-11-03 18:00:00 18.2 0 Calma 7 Sudoeste 0 -- -- 81
2017-11-03 17:00:00 21.1 5 Sur 10 Sudoeste 0 -- -- 73
2017-11-03 16:00:00 21.5 8 Sudoeste 18 Sudoeste 0 -- -- 72
2017-11-03 15:00:00 22.6 11 Sudoeste 18 Sudoeste 0 -- -- 68
2017-11-03 14:00:00 23.6 8 Sudoeste 15 Sudoeste 0 -- -- 63
2017-11-03 13:00:00 23.4 8 Sudoeste 13 Sudoeste 0 -- -- 63
2017-11-03 12:00:00 22.5 8 Sur 18 Sudeste 0 -- -- 68
2017-11-03 11:00:00 21.5 12 Sudeste 21 Sudeste 0 -- -- 73
2017-11-03 10:00:00 20.6 5 Este 9 Este 0 -- -- 90
2017-11-03 09:00:00 16.9 0 Calma 5 Este 0 -- -- 97
2017-11-03 08:00:00 12.9 2 Este 5 Este 0 -- -- 98
2017-11-03 07:00:00 12.2 0 Calma 5 Este 0 -- -- 97
2017-11-03 06:00:00 12.8 3 Este 6 Norte 0 -- -- 97
2017-11-03 05:00:00 13.1 3 Nordeste 7 Norte 0 -- -- 97
2017-11-03 04:00:00 12.8 2 Nordeste 6 Nordeste 0 -- -- 96
2017-11-03 03:00:00 12.7 2 Nordeste 8 Norte 0 -- -- 95
2017-11-03 02:00:00 13.5 3 Este 6 Nordeste 0 -- -- 95
2017-11-03 01:00:00 13.3 0 Calma 5 Noroeste 0 -- -- 94
2017-11-03 00:00:00 13.8 2 Nordeste 5 Norte 0 -- -- 93
2017-11-02 23:00:00 14.3 5 Este 8 Este 0 -- -- 92
2017-11-02 22:00:00 14.4 4 Este 5 Este 0 -- -- 91
2017-11-02 21:00:00 14.4 0 Calma 5 Este 0 -- -- 88
2017-11-02 20:00:00 15.4 2 Nordeste 5 Nordeste 0 -- -- 86
2017-11-02 19:00:00 15.6 2 Nordeste 6 Norte 0 -- -- 81
2017-11-02 18:00:00 18.5 3 Este 10 Sudeste 0 -- -- 72
2017-11-02 17:00:00 21 9 Sur 18 Sudeste 0 -- -- 64
2017-11-02 16:00:00 23.3 9 Sudeste 17 Sur 0 -- -- 58
2017-11-02 15:00:00 23.5 9 Sudeste 20 Sudeste 0 -- -- 56
2017-11-02 14:00:00 24.2 6 Sudeste 19 Sur 0 -- -- 55
2017-11-02 13:00:00 23.4 9 Sudeste 21 Sudeste 0 -- -- 57
2017-11-02 12:00:00 22.3 9 Sudeste 17 Este 0 -- -- 61
2017-11-02 11:00:00 21.4 9 Sudeste 18 Sudeste 0 -- -- 67
2017-11-02 10:00:00 20.6 5 Este 10 Este 0 -- -- 78
2017-11-02 09:00:00 17.7 0 Calma 4 Norte 0 -- -- 96
2017-11-02 08:00:00 12.9 4 Este 6 Este 0 -- -- 97
2017-11-02 07:00:00 12.2 3 Nordeste 7 Este 0 -- -- 96
2017-11-02 06:00:00 11.7 3 Nordeste 7 Este 0 -- -- 96
2017-11-02 05:00:00 11.9 4 Este 6 Este 0 -- -- 95
2017-11-02 04:00:00 11.6 3 Nordeste 7 Este 0 -- -- 95
2017-11-02 03:00:00 12 4 Este 6 Este 0 -- -- 93
2017-11-02 02:00:00 12.5 2 Este 7 Este 0 -- -- 92
2017-11-02 01:00:00 12.5 2 Este 8 Este 0 -- -- 91
2017-11-02 00:00:00 13.1 4 Este 8 Este 0 -- -- 89
2017-11-01 23:00:00 13.1 0 Calma 7 Norte 0 -- -- 86
2017-11-01 22:00:00 14.7 4 Norte 8 Norte 0 -- -- 82
2017-11-01 21:00:00 15.2 0 Calma 7 Norte 0 -- -- 77
2017-11-01 20:00:00 14.8 2 Nordeste 5 Norte 0 -- -- 77
2017-11-01 19:00:00 15.6 2 Norte 14 Norte 0 -- -- 69
2017-11-01 18:00:00 18.7 5 Norte 15 Norte 0 -- -- 58
2017-11-01 17:00:00 22.2 7 Oeste 19 Oeste 0 -- -- 50
2017-11-01 16:00:00 23.4 5 Noroeste 22 Sudoeste 0 -- -- 50
2017-11-01 15:00:00 22 12 Sudoeste 22 Sur 0 -- -- 53
2017-11-01 14:00:00 21.9 14 Sudoeste 22 Sur 0 -- -- 60
2017-11-01 13:00:00 21.3 14 Sudoeste 23 Sudoeste 0 -- -- 60
2017-11-01 12:00:00 21.2 12 Sur 16 Sur 0 -- -- 61
2017-11-01 11:00:00 20.6 10 Sudoeste 13 Sudoeste 0 -- -- 61
2017-11-01 10:00:00 19.9 2 Sur 8 Este 0 -- -- 69
2017-11-01 09:00:00 15.7 3 Este 7 Este 0 -- -- 94
2017-11-01 08:00:00 10.7 2 Nordeste 9 Este 0 -- -- 95
2017-11-01 07:00:00 9.6 2 Nordeste 9 Este 0 -- -- 95
2017-11-01 06:00:00 9.4 2 Nordeste 8 Este 0 -- -- 93
2017-11-01 05:00:00 9.7 0 Calma 8 Este 0 -- -- 93
2017-11-01 04:00:00 9.8 6 Este 10 Este 0 -- -- 91
2017-11-01 03:00:00 9.6 0 Calma 9 Este 0 -- -- 90
2017-11-01 02:00:00 9.6 3 Nordeste 7 Este 0 -- -- 89
2017-11-01 01:00:00 10.3 3 Nordeste 8 Este 0 -- -- 88
2017-11-01 00:00:00 10.5 3 Nordeste 7 Este 0 -- -- 87
2017-10-31 23:00:00 11.1 2 Este 5 Este 0 -- -- 87
2017-10-31 22:00:00 12.2 2 Nordeste 8 Este 0 -- -- 86
2017-10-31 21:00:00 13.6 2 Nordeste 6 Norte 0 -- -- 85
2017-10-31 20:00:00 14 0 Calma 5 Noroeste 0 -- -- 80
2017-10-31 19:00:00 15.9 0 Calma 6 Nordeste 0 -- -- 74
2017-10-31 18:00:00 18.5 0 Calma 8 Norte 0 -- -- 68
2017-10-31 17:00:00 20.7 5 Sudoeste 16 Sudoeste 0 -- -- 60
2017-10-31 16:00:00 22.5 8 Sudoeste 17 Oeste 0 -- -- 55
2017-10-31 15:00:00 22 7 Oeste 15 Sur 0 -- -- 55
2017-10-31 14:00:00 23 6 Sur 11 Sudeste 0 -- -- 53
2017-10-31 13:00:00 20.5 5 Este 15 Este 0 -- -- 59
2017-10-31 12:00:00 20 7 Este 17 Este 0 -- -- 60
2017-10-31 11:00:00 19.3 8 Este 18 Este 0 -- -- 63
2017-10-31 10:00:00 18.9 7 Nordeste 18 Este 0 -- -- 64
2017-10-31 09:00:00 18.1 7 Nordeste 16 Este 0 -- -- 67
2017-10-31 08:00:00 16.2 5 Nordeste 12 Norte 0 -- -- 75
2017-10-31 07:00:00 15.2 5 Norte 15 Norte 0 -- -- 75
2017-10-31 06:00:00 15.8 6 Norte 17 Nordeste 0 -- -- 73
2017-10-31 05:00:00 16.1 8 Norte 18 Norte 0 -- -- 73
2017-10-31 04:00:00 16.4 6 Norte 20 Nordeste 0 -- -- 72
2017-10-31 03:00:00 16.5 6 Nordeste 19 Nordeste 0 -- -- 74
2017-10-31 02:00:00 16.8 7 Nordeste 15 Nordeste 0 -- -- 78
2017-10-31 01:00:00 16.5 8 Nordeste 15 Nordeste 0 -- -- 83
2017-10-31 00:00:00 16.6 6 Nordeste 17 Este 0 -- -- 85
2017-10-30 23:00:00 16.9 3 Nordeste 13 Nordeste 0 -- -- 84
2017-10-30 22:00:00 16 3 Nordeste 10 Nordeste 0 -- -- 85
2017-10-30 21:00:00 16.9 6 Nordeste 11 Nordeste 0 -- -- 82
2017-10-30 20:00:00 17.5 6 Nordeste 11 Nordeste 0 -- -- 79
2017-10-30 19:00:00 16.8 4 Nordeste 11 Norte 0 -- -- 75
2017-10-30 18:00:00 18.9 6 Norte 13 Norte 0 -- -- 67
2017-10-30 17:00:00 21.5 8 Norte 16 Noroeste 0 -- -- 57
2017-10-30 16:00:00 22.6 9 Noroeste 14 Noroeste 0 -- -- 55
2017-10-30 15:00:00 23.6 7 Noroeste 18 Sudoeste 0 -- -- 55
2017-10-30 14:00:00 23.8 9 Sudoeste 18 Sudoeste 0 -- -- 54
2017-10-30 13:00:00 23 9 Sudoeste 17 Sudoeste 0 -- -- 55
2017-10-30 12:00:00 22.3 10 Sudoeste 16 Oeste 0 -- -- 58
2017-10-30 11:00:00 21.6 7 Sudoeste 11 Sudoeste 0 -- -- 64
2017-10-30 10:00:00 20.2 2 Oeste 4 Sudoeste 0 -- -- 76
2017-10-30 09:00:00 16 2 Norte 6 Este 0 -- -- 93
2017-10-30 08:00:00 12.4 5 Este 11 Este 0 -- -- 96
2017-10-30 07:00:00 10.9 5 Este 10 Este 0 -- -- 96
2017-10-30 06:00:00 11 2 Nordeste 11 Este 0 -- -- 96
2017-10-30 05:00:00 11.2 6 Este 10 Este 0 -- -- 97
2017-10-30 04:00:00 10.7 3 Este 8 Este 0 -- -- 96
2017-10-30 03:00:00 11.3 0 Calma 9 Este 0 -- -- 95
2017-10-30 02:00:00 11.6 2 Nordeste 10 Este 0 -- -- 94
2017-10-30 01:00:00 12.4 4 Nordeste 10 Este 0 -- -- 93
2017-10-30 00:00:00 13.5 0 Calma 5 Noroeste 0 -- -- 93
2017-10-29 23:00:00 14.7 3 Noroeste 7 Noroeste 0 -- -- 92
2017-10-29 22:00:00 15.2 2 Noroeste 6 Noroeste 0 -- -- 92
2017-10-29 21:00:00 14.8 2 Norte 12 Norte 0 -- -- 91
2017-10-29 20:00:00 15.2 0 Calma 4 Nordeste 0 -- -- 89
2017-10-29 19:00:00 16.7 0 Calma 6 Noroeste 0 -- -- 83
2017-10-29 18:00:00 19.2 5 Noroeste 14 Sudoeste 0 -- -- 75
2017-10-29 17:00:00 22.2 6 Oeste 18 Oeste 0 -- -- 66
2017-10-29 16:00:00 23 10 Oeste 20 Sudoeste 0 -- -- 66
2017-10-29 15:00:00 23.4 11 Sudoeste 22 Sur 0 -- -- 69
2017-10-29 14:00:00 22.7 13 Sudoeste 25 Sudoeste 0 -- -- 71
2017-10-29 13:00:00 22.5 13 Sudoeste 22 Sudoeste 0 -- -- 75
2017-10-29 12:00:00 22.3 6 Sudoeste 11 Sudoeste 0 -- -- 75
2017-10-29 11:00:00 21.6 6 Oeste 14 Sudoeste 0 -- -- 78
2017-10-29 10:00:00 20 5 Sur 10 Sudoeste 0 -- -- 94
2017-10-29 09:00:00 16.3 0 Calma 8 Este 0 -- -- 97
2017-10-29 08:00:00 14.4 4 Nordeste 8 Este 0 -- -- 98
2017-10-29 07:00:00 13.9 2 Este 6 Este 0 -- -- 97
2017-10-29 06:00:00 14.4 2 Nordeste 9 Este 0 -- -- 96
2017-10-29 05:00:00 14 6 Este 12 Este 0.2 -- -- 96
2017-10-29 04:00:00 13.7 2 Nordeste 7 Este 0 -- -- 96
2017-10-29 03:00:00 14.3 3 Este 9 Este 0 -- -- 95
2017-10-29 02:00:00 14.1 4 Este 9 Este 0 -- -- 95
2017-10-29 01:00:00 12.9 0 Calma 8 Este 0 -- -- 94
2017-10-29 00:00:00 12.9 0 Calma 8 Este 0 -- -- 93
2017-10-28 23:00:00 13.4 3 Nordeste 7 Este 0 -- -- 91
2017-10-28 22:00:00 13.9 4 Este 7 Este 0 -- -- 89
2017-10-28 21:00:00 14.4 2 Nordeste 5 Este 0 -- -- 84
2017-10-28 20:00:00 15.9 0 Calma 5 Noroeste 0 -- -- 77
2017-10-28 19:00:00 19.1 2 Norte 9 Sudeste 0 -- -- 65
2017-10-28 18:00:00 22.8 7 Sur 13 Sudoeste 0 -- -- 54
2017-10-28 17:00:00 23 7 Oeste 18 Sudoeste 0 -- -- 61
2017-10-28 16:00:00 23.1 10 Sudoeste 24 Oeste 0 -- -- 56
2017-10-28 15:00:00 23.8 7 Sudeste 17 Sur 0 -- -- 52
2017-10-28 14:00:00 23.8 7 Sudoeste 19 Sur 0 -- -- 56
2017-10-28 13:00:00 22.7 6 Oeste 13 Sur 0 -- -- 68
2017-10-28 12:00:00 22.5 0 Calma 8 Sudeste 0 -- -- 74
2017-10-28 11:00:00 19.2 2 Sudeste 10 Noroeste 0.2 -- -- 92
2017-10-28 10:00:00 18.2 3 Norte 6 Este 0 -- -- 90
2017-10-28 09:00:00 16.8 3 Este 11 Este 0 -- -- 92
2017-10-28 08:00:00 15.2 0 Calma 13 Este 0 -- -- 93
2017-10-28 07:00:00 14.4 8 Este 12 Este 0 -- -- 94
2017-10-28 06:00:00 12.6 0 Calma 12 Este 0 -- -- 93
2017-10-28 05:00:00 12.6 2 Este 11 Este 0 -- -- 91
2017-10-28 04:00:00 13.1 2 Nordeste 7 Noroeste 0 -- -- 92
2017-10-28 03:00:00 13 3 Nordeste 6 Este 0 -- -- 92
2017-10-28 02:00:00 13.7 2 Este 7 Este 0 -- -- 90
2017-10-28 01:00:00 15 0 Calma 5 Este 0 -- -- 88
2017-10-28 00:00:00 17.3 2 Nordeste 12 Nordeste 0 -- -- 82
2017-10-27 23:00:00 18.7 8 Nordeste 16 Nordeste 0 -- -- 79
2017-10-27 22:00:00 15.9 5 Norte 13 Norte 0 -- -- 74
2017-10-27 21:00:00 15.6 4 Norte 9 Norte 0 -- -- 74
2017-10-27 20:00:00 17.1 2 Nordeste 8 Norte 0 -- -- 67
2017-10-27 19:00:00 19.6 4 Norte 10 Norte 0 -- -- 69
2017-10-27 18:00:00 25.6 3 Oeste 16 Sudoeste 0 -- -- 58
2017-10-27 17:00:00 24.9 11 Sudoeste 22 Oeste 0 -- -- 61
2017-10-27 16:00:00 25.1 13 Oeste 26 Oeste 0 -- -- 62
2017-10-27 15:00:00 25 18 Oeste 27 Oeste 0 -- -- 64
2017-10-27 14:00:00 25.1 18 Oeste 28 Oeste 0 -- -- 64
2017-10-27 13:00:00 25.1 11 Oeste 18 Oeste 0 -- -- 68
2017-10-27 12:00:00 24.2 7 Oeste 14 Oeste 0 -- -- 73
2017-10-27 11:00:00 21.4 3 Sudeste 6 Sur 0 -- -- 88
2017-10-27 10:00:00 16.1 3 Este 9 Este 0 -- -- 98
2017-10-27 09:00:00 11.5 3 Nordeste 8 Este 0 -- -- 99
2017-10-27 08:00:00 10.3 4 Nordeste 9 Este 0 -- -- 99
2017-10-27 07:00:00 10.3 3 Nordeste 7 Nordeste 0 -- -- 99
2017-10-27 06:00:00 10.7 4 Este 9 Este 0 -- -- 98
2017-10-27 05:00:00 11.3 0 Calma 7 Este 0 -- -- 98
2017-10-27 04:00:00 11.8 2 Nordeste 6 Este 0.2 -- -- 98
2017-10-27 03:00:00 12.5 2 Nordeste 5 Este 0 -- -- 98
2017-10-27 02:00:00 13.7 2 Este 6 Este 0 -- -- 98
2017-10-27 01:00:00 14.3 0 Calma 5 Este 0 -- -- 98
2017-10-27 00:00:00 14 0 Calma 4 Este 0 -- -- 96
2017-10-26 23:00:00 14.8 0 Calma 4 Este 0 -- -- 95
2017-10-26 22:00:00 15.3 0 Calma 5 Este 0 -- -- 95
2017-10-26 21:00:00 16.2 0 Calma 4 Este 0 -- -- 93
2017-10-26 20:00:00 17.2 0 Calma 5 Norte 0 -- -- 90
2017-10-26 19:00:00 19.7 2 Noroeste 9 Sudoeste 0 -- -- 82
2017-10-26 18:00:00 23.3 6 Sudoeste 14 Sur 0 -- -- 72
2017-10-26 17:00:00 23.7 8 Sudoeste 17 Sudoeste 0 -- -- 69
2017-10-26 16:00:00 24.1 9 Sudoeste 17 Sudoeste 0 -- -- 68
2017-10-26 15:00:00 24.1 8 Sudoeste 16 Sudoeste 0 -- -- 68
2017-10-26 14:00:00 24.3 8 Sudoeste 19 Sudoeste 0 -- -- 66
2017-10-26 13:00:00 23.6 8 Sur 15 Sudoeste 0 -- -- 71
2017-10-26 12:00:00 22.7 7 Sudoeste 15 Sudoeste 0 -- -- 88
2017-10-26 11:00:00 20.9 0 Calma 5 Sudeste 0 -- -- 96
2017-10-26 10:00:00 17.9 0 Calma 5 Este 0 -- -- 98
2017-10-26 09:00:00 14.3 2 Nordeste 7 Este 0 -- -- 99
2017-10-26 08:00:00 13.4 2 Nordeste 6 Este 0 -- -- 99
2017-10-26 07:00:00 13.6 3 Este 5 Este 0 -- -- 99
2017-10-26 06:00:00 13.7 0 Calma 5 Este 0 -- -- 99
2017-10-26 05:00:00 13.7 2 Nordeste 4 Este 0 -- -- 98
2017-10-26 04:00:00 14.1 2 Nordeste 5 Este 0.2 -- -- 99
2017-10-26 03:00:00 14 2 Nordeste 5 Este 0 -- -- 97
2017-10-26 02:00:00 14.4 0 Calma 4 Este 0 -- -- 97
2017-10-26 01:00:00 14.7 3 Norte 6 Este 0 -- -- 97
2017-10-26 00:00:00 15 3 Nordeste 6 Nordeste 0 -- -- 96